sensor_id;sensor_type;location;lat;lon;timestamp;P1;durP1;ratioP1;P2;durP2;ratioP2
14241;SDS011;7205;50.864;12.766;2022-12-07T00:01:42;9.73;;;8.10;;
14241;SDS011;7205;50.864;12.766;2022-12-07T00:04:11;10.07;;;8.50;;
14241;SDS011;7205;50.864;12.766;2022-12-07T00:06:40;9.63;;;7.33;;
14241;SDS011;7205;50.864;12.766;2022-12-07T00:09:09;11.10;;;8.23;;
14241;SDS011;7205;50.864;12.766;2022-12-07T00:11:38;9.80;;;8.23;;
14241;SDS011;7205;50.864;12.766;2022-12-07T00:14:05;9.70;;;7.67;;
14241;SDS011;7205;50.864;12.766;2022-12-07T00:16:34;10.17;;;7.53;;
14241;SDS011;7205;50.864;12.766;2022-12-07T00:19:02;10.00;;;7.87;;
14241;SDS011;7205;50.864;12.766;2022-12-07T00:21:30;10.40;;;7.90;;
14241;SDS011;7205;50.864;12.766;2022-12-07T00:23:58;9.17;;;7.50;;
14241;SDS011;7205;50.864;12.766;2022-12-07T00:26:26;10.40;;;8.23;;
14241;SDS011;7205;50.864;12.766;2022-12-07T00:28:59;10.30;;;8.17;;
14241;SDS011;7205;50.864;12.766;2022-12-07T00:31:28;10.97;;;7.87;;
14241;SDS011;7205;50.864;12.766;2022-12-07T00:33:56;10.40;;;7.63;;
14241;SDS011;7205;50.864;12.766;2022-12-07T00:36:25;9.67;;;7.90;;
14241;SDS011;7205;50.864;12.766;2022-12-07T00:38:52;10.17;;;7.50;;
14241;SDS011;7205;50.864;12.766;2022-12-07T00:41:20;9.80;;;8.17;;
14241;SDS011;7205;50.864;12.766;2022-12-07T00:43:49;11.83;;;8.00;;
14241;SDS011;7205;50.864;12.766;2022-12-07T00:46:17;9.13;;;7.40;;
14241;SDS011;7205;50.864;12.766;2022-12-07T00:48:45;8.87;;;7.43;;
14241;SDS011;7205;50.864;12.766;2022-12-07T00:51:13;11.43;;;7.80;;
14241;SDS011;7205;50.864;12.766;2022-12-07T00:53:42;13.60;;;7.70;;
14241;SDS011;7205;50.864;12.766;2022-12-07T00:56:11;8.93;;;7.13;;
14241;SDS011;7205;50.864;12.766;2022-12-07T00:58:39;11.10;;;8.30;;
14241;SDS011;7205;50.864;12.766;2022-12-07T01:01:06;12.63;;;8.30;;
14241;SDS011;7205;50.864;12.766;2022-12-07T01:03:34;10.40;;;7.83;;
14241;SDS011;7205;50.864;12.766;2022-12-07T01:06:01;12.00;;;8.43;;
14241;SDS011;7205;50.864;12.766;2022-12-07T01:08:29;11.90;;;8.27;;
14241;SDS011;7205;50.864;12.766;2022-12-07T01:11:02;12.50;;;8.37;;
14241;SDS011;7205;50.864;12.766;2022-12-07T01:13:31;11.77;;;8.27;;
14241;SDS011;7205;50.864;12.766;2022-12-07T01:15:59;11.60;;;8.60;;
14241;SDS011;7205;50.864;12.766;2022-12-07T01:18:28;11.23;;;8.03;;
14241;SDS011;7205;50.864;12.766;2022-12-07T01:20:57;11.20;;;8.60;;
14241;SDS011;7205;50.864;12.766;2022-12-07T01:23:25;13.80;;;8.50;;
14241;SDS011;7205;50.864;12.766;2022-12-07T01:25:53;11.50;;;8.20;;
14241;SDS011;7205;50.864;12.766;2022-12-07T01:28:24;14.23;;;9.27;;
14241;SDS011;7205;50.864;12.766;2022-12-07T01:30:55;14.20;;;9.10;;
14241;SDS011;7205;50.864;12.766;2022-12-07T01:33:24;13.53;;;8.30;;
14241;SDS011;7205;50.864;12.766;2022-12-07T01:35:52;12.77;;;8.47;;
14241;SDS011;7205;50.864;12.766;2022-12-07T01:38:19;13.50;;;8.83;;
14241;SDS011;7205;50.864;12.766;2022-12-07T01:40:51;14.10;;;8.53;;
14241;SDS011;7205;50.864;12.766;2022-12-07T01:43:20;12.60;;;8.77;;
14241;SDS011;7205;50.864;12.766;2022-12-07T01:45:50;12.70;;;8.43;;
14241;SDS011;7205;50.864;12.766;2022-12-07T01:48:18;14.90;;;9.50;;
14241;SDS011;7205;50.864;12.766;2022-12-07T01:50:48;12.23;;;8.53;;
14241;SDS011;7205;50.864;12.766;2022-12-07T01:53:18;11.73;;;8.00;;
14241;SDS011;7205;50.864;12.766;2022-12-07T01:55:45;11.33;;;7.50;;
14241;SDS011;7205;50.864;12.766;2022-12-07T01:58:16;10.33;;;8.07;;
14241;SDS011;7205;50.864;12.766;2022-12-07T02:00:43;12.70;;;8.30;;
14241;SDS011;7205;50.864;12.766;2022-12-07T02:03:13;10.60;;;8.07;;
14241;SDS011;7205;50.864;12.766;2022-12-07T02:05:45;11.33;;;7.73;;
14241;SDS011;7205;50.864;12.766;2022-12-07T02:08:13;13.07;;;7.90;;
14241;SDS011;7205;50.864;12.766;2022-12-07T02:10:40;11.27;;;8.23;;
14241;SDS011;7205;50.864;12.766;2022-12-07T02:13:08;13.23;;;8.13;;
14241;SDS011;7205;50.864;12.766;2022-12-07T02:15:41;12.87;;;8.67;;
14241;SDS011;7205;50.864;12.766;2022-12-07T02:18:20;11.47;;;7.90;;
14241;SDS011;7205;50.864;12.766;2022-12-07T02:20:56;9.70;;;7.37;;
14241;SDS011;7205;50.864;12.766;2022-12-07T02:26:53;10.57;;;7.27;;
14241;SDS011;7205;50.864;12.766;2022-12-07T02:29:44;12.90;;;7.13;;
14241;SDS011;7205;50.864;12.766;2022-12-07T02:32:16;11.87;;;7.40;;
14241;SDS011;7205;50.864;12.766;2022-12-07T02:34:50;11.43;;;7.03;;
14241;SDS011;7205;50.864;12.766;2022-12-07T02:37:27;11.20;;;7.30;;
14241;SDS011;7205;50.864;12.766;2022-12-07T02:40:04;11.33;;;7.00;;
14241;SDS011;7205;50.864;12.766;2022-12-07T02:42:36;9.83;;;6.20;;
14241;SDS011;7205;50.864;12.766;2022-12-07T02:45:09;9.00;;;6.67;;
14241;SDS011;7205;50.864;12.766;2022-12-07T02:47:39;9.43;;;6.43;;
14241;SDS011;7205;50.864;12.766;2022-12-07T02:50:09;7.00;;;5.33;;
14241;SDS011;7205;50.864;12.766;2022-12-07T02:52:37;7.80;;;5.50;;
14241;SDS011;7205;50.864;12.766;2022-12-07T02:55:04;9.87;;;5.57;;
14241;SDS011;7205;50.864;12.766;2022-12-07T02:57:37;7.27;;;6.10;;
14241;SDS011;7205;50.864;12.766;2022-12-07T03:00:14;8.40;;;5.83;;
14241;SDS011;7205;50.864;12.766;2022-12-07T03:02:47;6.20;;;4.90;;
14241;SDS011;7205;50.864;12.766;2022-12-07T03:08:13;6.03;;;4.97;;
14241;SDS011;7205;50.864;12.766;2022-12-07T03:10:48;6.23;;;5.10;;
14241;SDS011;7205;50.864;12.766;2022-12-07T03:13:22;5.60;;;4.57;;
14241;SDS011;7205;50.864;12.766;2022-12-07T03:15:55;5.40;;;4.37;;
14241;SDS011;7205;50.864;12.766;2022-12-07T03:18:29;5.90;;;4.47;;
14241;SDS011;7205;50.864;12.766;2022-12-07T03:21:00;4.60;;;4.20;;
14241;SDS011;7205;50.864;12.766;2022-12-07T03:23:31;4.50;;;4.10;;
14241;SDS011;7205;50.864;12.766;2022-12-07T03:26:01;12.50;;;8.80;;
14241;SDS011;7205;50.864;12.766;2022-12-07T03:28:31;5.33;;;4.80;;
14241;SDS011;7205;50.864;12.766;2022-12-07T03:31:03;9.07;;;6.00;;
14241;SDS011;7205;50.864;12.766;2022-12-07T03:33:36;4.87;;;4.40;;
14241;SDS011;7205;50.864;12.766;2022-12-07T03:36:08;9.00;;;7.40;;
14241;SDS011;7205;50.864;12.766;2022-12-07T03:38:40;5.17;;;4.43;;
14241;SDS011;7205;50.864;12.766;2022-12-07T03:41:14;7.73;;;6.20;;
14241;SDS011;7205;50.864;12.766;2022-12-07T03:43:45;6.07;;;5.47;;
14241;SDS011;7205;50.864;12.766;2022-12-07T03:46:17;6.73;;;4.90;;
14241;SDS011;7205;50.864;12.766;2022-12-07T03:48:47;7.60;;;6.53;;
14241;SDS011;7205;50.864;12.766;2022-12-07T03:51:21;6.17;;;4.50;;
14241;SDS011;7205;50.864;12.766;2022-12-07T03:53:53;8.50;;;6.57;;
14241;SDS011;7205;50.864;12.766;2022-12-07T03:56:25;3.50;;;3.20;;
14241;SDS011;7205;50.864;12.766;2022-12-07T03:58:54;4.33;;;3.93;;
14241;SDS011;7205;50.864;12.766;2022-12-07T04:01:23;5.80;;;4.00;;
14241;SDS011;7205;50.864;12.766;2022-12-07T04:03:51;6.80;;;4.53;;
14241;SDS011;7205;50.864;12.766;2022-12-07T04:06:17;3.53;;;3.23;;
14241;SDS011;7205;50.864;12.766;2022-12-07T04:08:44;7.47;;;5.90;;
14241;SDS011;7205;50.864;12.766;2022-12-07T04:11:11;6.23;;;5.07;;
14241;SDS011;7205;50.864;12.766;2022-12-07T04:13:38;4.00;;;3.60;;
14241;SDS011;7205;50.864;12.766;2022-12-07T04:16:19;3.83;;;3.50;;
14241;SDS011;7205;50.864;12.766;2022-12-07T04:18:47;3.77;;;3.20;;
14241;SDS011;7205;50.864;12.766;2022-12-07T04:21:14;4.20;;;3.40;;
14241;SDS011;7205;50.864;12.766;2022-12-07T04:23:41;3.53;;;3.23;;
14241;SDS011;7205;50.864;12.766;2022-12-07T04:26:07;7.47;;;4.60;;
14241;SDS011;7205;50.864;12.766;2022-12-07T04:28:34;4.00;;;3.03;;
14241;SDS011;7205;50.864;12.766;2022-12-07T04:31:01;3.93;;;3.43;;
14241;SDS011;7205;50.864;12.766;2022-12-07T04:33:28;3.63;;;3.30;;
14241;SDS011;7205;50.864;12.766;2022-12-07T04:35:56;5.23;;;4.40;;
14241;SDS011;7205;50.864;12.766;2022-12-07T04:38:23;3.30;;;3.00;;
14241;SDS011;7205;50.864;12.766;2022-12-07T04:40:50;4.40;;;4.00;;
14241;SDS011;7205;50.864;12.766;2022-12-07T04:43:16;5.17;;;4.63;;
14241;SDS011;7205;50.864;12.766;2022-12-07T04:45:45;3.93;;;3.50;;
14241;SDS011;7205;50.864;12.766;2022-12-07T04:48:12;4.97;;;3.97;;
14241;SDS011;7205;50.864;12.766;2022-12-07T04:50:39;2.97;;;2.77;;
14241;SDS011;7205;50.864;12.766;2022-12-07T04:53:07;3.40;;;3.10;;
14241;SDS011;7205;50.864;12.766;2022-12-07T04:55:34;4.33;;;3.20;;
14241;SDS011;7205;50.864;12.766;2022-12-07T04:58:01;3.23;;;3.00;;
14241;SDS011;7205;50.864;12.766;2022-12-07T05:00:28;3.80;;;3.47;;
14241;SDS011;7205;50.864;12.766;2022-12-07T05:02:55;3.43;;;3.13;;
14241;SDS011;7205;50.864;12.766;2022-12-07T05:05:21;3.40;;;2.80;;
14241;SDS011;7205;50.864;12.766;2022-12-07T05:07:49;3.20;;;2.93;;
14241;SDS011;7205;50.864;12.766;2022-12-07T05:10:17;3.20;;;2.90;;
14241;SDS011;7205;50.864;12.766;2022-12-07T05:12:44;3.93;;;2.70;;
14241;SDS011;7205;50.864;12.766;2022-12-07T05:15:11;3.00;;;2.80;;
14241;SDS011;7205;50.864;12.766;2022-12-07T05:17:39;3.33;;;3.03;;
14241;SDS011;7205;50.864;12.766;2022-12-07T05:20:06;2.77;;;2.57;;
14241;SDS011;7205;50.864;12.766;2022-12-07T05:22:34;3.17;;;2.97;;
14241;SDS011;7205;50.864;12.766;2022-12-07T05:25:01;2.60;;;2.40;;
14241;SDS011;7205;50.864;12.766;2022-12-07T05:27:29;3.30;;;3.00;;
14241;SDS011;7205;50.864;12.766;2022-12-07T05:29:56;4.27;;;2.50;;
14241;SDS011;7205;50.864;12.766;2022-12-07T05:32:23;3.23;;;3.03;;
14241;SDS011;7205;50.864;12.766;2022-12-07T05:34:50;2.50;;;2.30;;
14241;SDS011;7205;50.864;12.766;2022-12-07T05:37:17;3.63;;;3.33;;
14241;SDS011;7205;50.864;12.766;2022-12-07T05:39:44;4.43;;;4.00;;
14241;SDS011;7205;50.864;12.766;2022-12-07T05:42:11;6.77;;;5.87;;
14241;SDS011;7205;50.864;12.766;2022-12-07T05:44:40;4.93;;;4.27;;
14241;SDS011;7205;50.864;12.766;2022-12-07T05:47:07;5.07;;;4.57;;
14241;SDS011;7205;50.864;12.766;2022-12-07T05:49:34;3.70;;;3.40;;
14241;SDS011;7205;50.864;12.766;2022-12-07T05:52:01;4.77;;;4.37;;
14241;SDS011;7205;50.864;12.766;2022-12-07T05:54:34;5.00;;;4.53;;
14241;SDS011;7205;50.864;12.766;2022-12-07T05:57:06;5.00;;;4.50;;
14241;SDS011;7205;50.864;12.766;2022-12-07T05:59:33;4.40;;;4.00;;
14241;SDS011;7205;50.864;12.766;2022-12-07T06:02:01;5.00;;;4.10;;
14241;SDS011;7205;50.864;12.766;2022-12-07T06:04:32;8.17;;;4.90;;
14241;SDS011;7205;50.864;12.766;2022-12-07T06:07:00;4.47;;;4.07;;
14241;SDS011;7205;50.864;12.766;2022-12-07T06:09:29;6.03;;;4.40;;
14241;SDS011;7205;50.864;12.766;2022-12-07T06:11:56;4.50;;;4.10;;
14241;SDS011;7205;50.864;12.766;2022-12-07T06:14:42;7.43;;;5.80;;
14241;SDS011;7205;50.864;12.766;2022-12-07T06:17:11;5.90;;;5.27;;
14241;SDS011;7205;50.864;12.766;2022-12-07T06:19:39;11.47;;;7.00;;
14241;SDS011;7205;50.864;12.766;2022-12-07T06:22:06;8.27;;;6.77;;
14241;SDS011;7205;50.864;12.766;2022-12-07T06:24:34;10.93;;;8.47;;
14241;SDS011;7205;50.864;12.766;2022-12-07T06:27:01;9.47;;;5.97;;
14241;SDS011;7205;50.864;12.766;2022-12-07T06:29:28;4.60;;;4.17;;
14241;SDS011;7205;50.864;12.766;2022-12-07T06:31:55;4.50;;;4.10;;
14241;SDS011;7205;50.864;12.766;2022-12-07T06:34:23;5.87;;;4.90;;
14241;SDS011;7205;50.864;12.766;2022-12-07T06:36:51;4.67;;;4.27;;
14241;SDS011;7205;50.864;12.766;2022-12-07T06:39:20;4.97;;;4.47;;
14241;SDS011;7205;50.864;12.766;2022-12-07T06:41:49;5.03;;;4.53;;
14241;SDS011;7205;50.864;12.766;2022-12-07T06:44:17;4.70;;;4.30;;
14241;SDS011;7205;50.864;12.766;2022-12-07T06:46:44;5.40;;;4.87;;
14241;SDS011;7205;50.864;12.766;2022-12-07T06:49:11;4.47;;;4.07;;
14241;SDS011;7205;50.864;12.766;2022-12-07T06:51:39;5.03;;;4.43;;
14241;SDS011;7205;50.864;12.766;2022-12-07T06:54:07;5.83;;;4.73;;
14241;SDS011;7205;50.864;12.766;2022-12-07T06:56:34;5.77;;;5.17;;
14241;SDS011;7205;50.864;12.766;2022-12-07T06:59:01;5.10;;;4.70;;
14241;SDS011;7205;50.864;12.766;2022-12-07T07:01:29;4.90;;;4.40;;
14241;SDS011;7205;50.864;12.766;2022-12-07T07:03:55;5.57;;;5.07;;
14241;SDS011;7205;50.864;12.766;2022-12-07T07:06:25;5.37;;;4.67;;
14241;SDS011;7205;50.864;12.766;2022-12-07T07:08:53;5.60;;;4.87;;
14241;SDS011;7205;50.864;12.766;2022-12-07T07:11:20;6.00;;;5.43;;
14241;SDS011;7205;50.864;12.766;2022-12-07T07:13:46;5.70;;;5.17;;
14241;SDS011;7205;50.864;12.766;2022-12-07T07:16:13;9.53;;;7.90;;
14241;SDS011;7205;50.864;12.766;2022-12-07T07:18:40;7.83;;;6.20;;
14241;SDS011;7205;50.864;12.766;2022-12-07T07:21:10;9.73;;;7.00;;
14241;SDS011;7205;50.864;12.766;2022-12-07T07:23:37;6.77;;;5.20;;
14241;SDS011;7205;50.864;12.766;2022-12-07T07:26:05;6.83;;;5.47;;
14241;SDS011;7205;50.864;12.766;2022-12-07T07:28:32;5.73;;;5.17;;
14241;SDS011;7205;50.864;12.766;2022-12-07T07:30:58;7.20;;;5.57;;
14241;SDS011;7205;50.864;12.766;2022-12-07T07:33:25;6.13;;;5.53;;
14241;SDS011;7205;50.864;12.766;2022-12-07T07:35:56;6.13;;;4.83;;
14241;SDS011;7205;50.864;12.766;2022-12-07T07:38:22;5.87;;;5.27;;
14241;SDS011;7205;50.864;12.766;2022-12-07T07:40:49;5.57;;;4.93;;
14241;SDS011;7205;50.864;12.766;2022-12-07T07:43:17;8.70;;;6.17;;
14241;SDS011;7205;50.864;12.766;2022-12-07T07:45:44;5.83;;;5.10;;
14241;SDS011;7205;50.864;12.766;2022-12-07T07:48:11;11.50;;;8.87;;
14241;SDS011;7205;50.864;12.766;2022-12-07T07:50:38;5.47;;;4.60;;
14241;SDS011;7205;50.864;12.766;2022-12-07T07:53:05;6.40;;;5.80;;
14241;SDS011;7205;50.864;12.766;2022-12-07T07:55:32;5.43;;;4.93;;
14241;SDS011;7205;50.864;12.766;2022-12-07T07:57:59;6.07;;;5.47;;
14241;SDS011;7205;50.864;12.766;2022-12-07T08:00:27;7.53;;;6.43;;
14241;SDS011;7205;50.864;12.766;2022-12-07T08:03:00;5.67;;;4.80;;
14241;SDS011;7205;50.864;12.766;2022-12-07T08:05:27;6.13;;;5.37;;
14241;SDS011;7205;50.864;12.766;2022-12-07T08:07:53;5.47;;;4.97;;
14241;SDS011;7205;50.864;12.766;2022-12-07T08:10:20;6.23;;;5.63;;
14241;SDS011;7205;50.864;12.766;2022-12-07T08:12:47;6.50;;;5.37;;
14241;SDS011;7205;50.864;12.766;2022-12-07T08:15:35;7.00;;;5.77;;
14241;SDS011;7205;50.864;12.766;2022-12-07T08:18:03;6.20;;;5.60;;
14241;SDS011;7205;50.864;12.766;2022-12-07T08:20:31;8.90;;;5.17;;
14241;SDS011;7205;50.864;12.766;2022-12-07T08:22:58;5.33;;;4.67;;
14241;SDS011;7205;50.864;12.766;2022-12-07T08:25:25;5.97;;;5.37;;
14241;SDS011;7205;50.864;12.766;2022-12-07T08:27:52;5.77;;;5.20;;
14241;SDS011;7205;50.864;12.766;2022-12-07T08:30:19;6.13;;;5.47;;
14241;SDS011;7205;50.864;12.766;2022-12-07T08:32:48;7.40;;;6.07;;
14241;SDS011;7205;50.864;12.766;2022-12-07T08:35:15;7.83;;;5.77;;
14241;SDS011;7205;50.864;12.766;2022-12-07T08:37:46;4.93;;;4.53;;
14241;SDS011;7205;50.864;12.766;2022-12-07T08:40:17;6.10;;;5.50;;
14241;SDS011;7205;50.864;12.766;2022-12-07T08:42:50;10.57;;;7.73;;
14241;SDS011;7205;50.864;12.766;2022-12-07T08:45:17;6.03;;;4.70;;
14241;SDS011;7205;50.864;12.766;2022-12-07T08:47:46;5.03;;;4.47;;
14241;SDS011;7205;50.864;12.766;2022-12-07T08:50:20;5.60;;;5.07;;
14241;SDS011;7205;50.864;12.766;2022-12-07T08:52:48;4.80;;;4.37;;
14241;SDS011;7205;50.864;12.766;2022-12-07T08:55:20;5.53;;;5.00;;
14241;SDS011;7205;50.864;12.766;2022-12-07T08:57:47;4.73;;;4.33;;
14241;SDS011;7205;50.864;12.766;2022-12-07T09:00:15;5.73;;;4.70;;
14241;SDS011;7205;50.864;12.766;2022-12-07T09:02:42;6.13;;;4.90;;
14241;SDS011;7205;50.864;12.766;2022-12-07T09:05:11;4.87;;;4.30;;
14241;SDS011;7205;50.864;12.766;2022-12-07T09:07:41;6.83;;;6.03;;
14241;SDS011;7205;50.864;12.766;2022-12-07T09:10:09;5.13;;;4.50;;
14241;SDS011;7205;50.864;12.766;2022-12-07T09:12:37;4.60;;;4.20;;
14241;SDS011;7205;50.864;12.766;2022-12-07T09:15:04;4.67;;;4.23;;
14241;SDS011;7205;50.864;12.766;2022-12-07T09:17:36;7.60;;;4.37;;
14241;SDS011;7205;50.864;12.766;2022-12-07T09:20:04;5.60;;;4.30;;
14241;SDS011;7205;50.864;12.766;2022-12-07T09:22:33;5.07;;;4.60;;
14241;SDS011;7205;50.864;12.766;2022-12-07T09:25:01;5.57;;;4.13;;
14241;SDS011;7205;50.864;12.766;2022-12-07T09:27:28;6.33;;;4.27;;
14241;SDS011;7205;50.864;12.766;2022-12-07T09:29:55;4.60;;;4.20;;
14241;SDS011;7205;50.864;12.766;2022-12-07T09:32:22;7.10;;;4.47;;
14241;SDS011;7205;50.864;12.766;2022-12-07T09:34:49;5.13;;;4.27;;
14241;SDS011;7205;50.864;12.766;2022-12-07T09:37:16;4.50;;;4.10;;
14241;SDS011;7205;50.864;12.766;2022-12-07T09:39:45;9.63;;;5.90;;
14241;SDS011;7205;50.864;12.766;2022-12-07T09:42:15;4.23;;;3.93;;
14241;SDS011;7205;50.864;12.766;2022-12-07T09:44:53;4.17;;;3.77;;
14241;SDS011;7205;50.864;12.766;2022-12-07T09:47:19;4.30;;;3.90;;
14241;SDS011;7205;50.864;12.766;2022-12-07T09:49:46;4.17;;;3.77;;
14241;SDS011;7205;50.864;12.766;2022-12-07T09:52:17;5.27;;;4.10;;
14241;SDS011;7205;50.864;12.766;2022-12-07T09:54:57;7.67;;;4.73;;
14241;SDS011;7205;50.864;12.766;2022-12-07T09:57:27;4.47;;;4.00;;
14241;SDS011;7205;50.864;12.766;2022-12-07T09:59:56;6.30;;;4.13;;
14241;SDS011;7205;50.864;12.766;2022-12-07T10:02:34;4.20;;;3.57;;
14241;SDS011;7205;50.864;12.766;2022-12-07T10:05:04;3.90;;;3.53;;
14241;SDS011;7205;50.864;12.766;2022-12-07T10:07:33;4.90;;;3.80;;
14241;SDS011;7205;50.864;12.766;2022-12-07T10:10:03;4.50;;;4.10;;
14241;SDS011;7205;50.864;12.766;2022-12-07T10:12:31;5.40;;;3.90;;
14241;SDS011;7205;50.864;12.766;2022-12-07T10:15:40;6.80;;;4.50;;
14241;SDS011;7205;50.864;12.766;2022-12-07T10:18:20;4.40;;;4.00;;
14241;SDS011;7205;50.864;12.766;2022-12-07T10:21:02;4.37;;;4.00;;
14241;SDS011;7205;50.864;12.766;2022-12-07T10:23:33;7.00;;;4.63;;
14241;SDS011;7205;50.864;12.766;2022-12-07T10:28:52;4.60;;;4.13;;
14241;SDS011;7205;50.864;12.766;2022-12-07T10:31:19;5.13;;;4.20;;
14241;SDS011;7205;50.864;12.766;2022-12-07T10:33:49;4.83;;;4.40;;
14241;SDS011;7205;50.864;12.766;2022-12-07T10:36:18;5.03;;;3.73;;
14241;SDS011;7205;50.864;12.766;2022-12-07T10:38:48;4.53;;;3.63;;
14241;SDS011;7205;50.864;12.766;2022-12-07T10:41:16;4.00;;;3.63;;
14241;SDS011;7205;50.864;12.766;2022-12-07T10:43:49;5.90;;;3.70;;
14241;SDS011;7205;50.864;12.766;2022-12-07T10:49:34;4.43;;;3.90;;
14241;SDS011;7205;50.864;12.766;2022-12-07T10:52:14;3.90;;;3.60;;
14241;SDS011;7205;50.864;12.766;2022-12-07T10:54:49;7.50;;;3.63;;
14241;SDS011;7205;50.864;12.766;2022-12-07T10:57:37;4.40;;;3.73;;
14241;SDS011;7205;50.864;12.766;2022-12-07T11:00:17;5.20;;;4.17;;
14241;SDS011;7205;50.864;12.766;2022-12-07T11:02:50;3.37;;;3.07;;
14241;SDS011;7205;50.864;12.766;2022-12-07T11:05:29;4.47;;;3.00;;
14241;SDS011;7205;50.864;12.766;2022-12-07T11:08:03;3.63;;;2.93;;
14241;SDS011;7205;50.864;12.766;2022-12-07T11:10:41;3.63;;;3.20;;
14241;SDS011;7205;50.864;12.766;2022-12-07T11:13:18;3.13;;;2.93;;
14241;SDS011;7205;50.864;12.766;2022-12-07T11:16:11;3.73;;;3.30;;
14241;SDS011;7205;50.864;12.766;2022-12-07T11:19:06;4.10;;;3.10;;
14241;SDS011;7205;50.864;12.766;2022-12-07T11:21:45;4.13;;;3.80;;
14241;SDS011;7205;50.864;12.766;2022-12-07T11:24:23;2.83;;;2.60;;
14241;SDS011;7205;50.864;12.766;2022-12-07T11:27:01;3.00;;;2.70;;
14241;SDS011;7205;50.864;12.766;2022-12-07T11:29:50;3.70;;;2.97;;
14241;SDS011;7205;50.864;12.766;2022-12-07T11:32:32;4.60;;;2.50;;
14241;SDS011;7205;50.864;12.766;2022-12-07T11:35:11;3.87;;;2.83;;
14241;SDS011;7205;50.864;12.766;2022-12-07T11:37:47;3.60;;;2.73;;
14241;SDS011;7205;50.864;12.766;2022-12-07T11:40:24;2.90;;;2.60;;
14241;SDS011;7205;50.864;12.766;2022-12-07T11:42:56;3.00;;;2.70;;
14241;SDS011;7205;50.864;12.766;2022-12-07T11:45:27;2.53;;;2.33;;
14241;SDS011;7205;50.864;12.766;2022-12-07T11:47:59;2.43;;;2.23;;
14241;SDS011;7205;50.864;12.766;2022-12-07T11:50:32;3.17;;;2.07;;
14241;SDS011;7205;50.864;12.766;2022-12-07T11:53:01;2.97;;;2.40;;
14241;SDS011;7205;50.864;12.766;2022-12-07T11:55:38;2.90;;;2.70;;
14241;SDS011;7205;50.864;12.766;2022-12-07T12:01:15;2.73;;;2.40;;
14241;SDS011;7205;50.864;12.766;2022-12-07T12:03:56;5.53;;;2.67;;
14241;SDS011;7205;50.864;12.766;2022-12-07T12:06:29;4.17;;;2.70;;
14241;SDS011;7205;50.864;12.766;2022-12-07T12:08:58;2.73;;;2.53;;
14241;SDS011;7205;50.864;12.766;2022-12-07T12:11:34;6.80;;;2.67;;
14241;SDS011;7205;50.864;12.766;2022-12-07T12:14:24;3.00;;;2.33;;
14241;SDS011;7205;50.864;12.766;2022-12-07T12:17:15;3.43;;;2.40;;
14241;SDS011;7205;50.864;12.766;2022-12-07T12:20:03;10.57;;;3.50;;
14241;SDS011;7205;50.864;12.766;2022-12-07T12:22:35;3.20;;;2.20;;
14241;SDS011;7205;50.864;12.766;2022-12-07T12:25:06;2.30;;;1.90;;
14241;SDS011;7205;50.864;12.766;2022-12-07T12:27:50;9.30;;;3.10;;
14241;SDS011;7205;50.864;12.766;2022-12-07T12:30:33;2.17;;;1.60;;
14241;SDS011;7205;50.864;12.766;2022-12-07T12:33:17;3.90;;;1.97;;
14241;SDS011;7205;50.864;12.766;2022-12-07T12:39:18;2.20;;;1.60;;
14241;SDS011;7205;50.864;12.766;2022-12-07T12:41:56;1.93;;;1.83;;
14241;SDS011;7205;50.864;12.766;2022-12-07T12:47:54;2.87;;;1.93;;
14241;SDS011;7205;50.864;12.766;2022-12-07T12:50:23;2.73;;;1.57;;
14241;SDS011;7205;50.864;12.766;2022-12-07T12:52:58;1.60;;;1.50;;
14241;SDS011;7205;50.864;12.766;2022-12-07T12:56:23;2.70;;;1.70;;
14241;SDS011;7205;50.864;12.766;2022-12-07T13:02:15;2.27;;;1.40;;
14241;SDS011;7205;50.864;12.766;2022-12-07T13:04:55;1.50;;;1.40;;
14241;SDS011;7205;50.864;12.766;2022-12-07T13:10:28;3.67;;;1.50;;
14241;SDS011;7205;50.864;12.766;2022-12-07T13:19:55;3.63;;;1.50;;
14241;SDS011;7205;50.864;12.766;2022-12-07T13:22:51;1.57;;;1.20;;
14241;SDS011;7205;50.864;12.766;2022-12-07T13:28:35;2.00;;;1.30;;
14241;SDS011;7205;50.864;12.766;2022-12-07T13:31:13;3.20;;;1.80;;
14241;SDS011;7205;50.864;12.766;2022-12-07T13:33:45;3.33;;;1.60;;
14241;SDS011;7205;50.864;12.766;2022-12-07T13:36:20;5.23;;;1.67;;
14241;SDS011;7205;50.864;12.766;2022-12-07T13:38:52;3.03;;;1.70;;
14241;SDS011;7205;50.864;12.766;2022-12-07T13:41:27;1.73;;;1.30;;
14241;SDS011;7205;50.864;12.766;2022-12-07T13:44:01;3.47;;;1.40;;
14241;SDS011;7205;50.864;12.766;2022-12-07T13:46:42;1.53;;;1.40;;
14241;SDS011;7205;50.864;12.766;2022-12-07T13:50:51;5.87;;;1.80;;
14241;SDS011;7205;50.864;12.766;2022-12-07T13:52:23;2.20;;;1.23;;
14241;SDS011;7205;50.864;12.766;2022-12-07T13:54:55;3.33;;;1.20;;
14241;SDS011;7205;50.864;12.766;2022-12-07T13:57:27;2.73;;;1.10;;
14241;SDS011;7205;50.864;12.766;2022-12-07T13:59:55;2.47;;;1.20;;
14241;SDS011;7205;50.864;12.766;2022-12-07T14:02:25;3.13;;;1.40;;
14241;SDS011;7205;50.864;12.766;2022-12-07T14:05:05;2.67;;;1.27;;
14241;SDS011;7205;50.864;12.766;2022-12-07T14:07:56;1.83;;;1.17;;
14241;SDS011;7205;50.864;12.766;2022-12-07T14:10:38;1.40;;;1.27;;
14241;SDS011;7205;50.864;12.766;2022-12-07T14:13:28;2.37;;;1.00;;
14241;SDS011;7205;50.864;12.766;2022-12-07T14:16:18;1.40;;;1.23;;
14241;SDS011;7205;50.864;12.766;2022-12-07T14:20:02;2.10;;;1.90;;
14241;SDS011;7205;50.864;12.766;2022-12-07T14:23:21;3.10;;;2.80;;
14241;SDS011;7205;50.864;12.766;2022-12-07T14:26:19;3.57;;;2.80;;
14241;SDS011;7205;50.864;12.766;2022-12-07T14:29:29;1.93;;;1.70;;
14241;SDS011;7205;50.864;12.766;2022-12-07T14:32:36;1.57;;;1.47;;
14241;SDS011;7205;50.864;12.766;2022-12-07T14:35:43;1.90;;;0.90;;
14241;SDS011;7205;50.864;12.766;2022-12-07T14:38:41;1.07;;;0.70;;
14241;SDS011;7205;50.864;12.766;2022-12-07T14:41:26;1.57;;;0.90;;
14241;SDS011;7205;50.864;12.766;2022-12-07T14:44:29;1.67;;;1.00;;
14241;SDS011;7205;50.864;12.766;2022-12-07T14:47:27;0.70;;;0.70;;
14241;SDS011;7205;50.864;12.766;2022-12-07T14:50:24;1.27;;;0.80;;
14241;SDS011;7205;50.864;12.766;2022-12-07T14:52:59;1.63;;;0.80;;
14241;SDS011;7205;50.864;12.766;2022-12-07T14:58:43;1.00;;;0.90;;
14241;SDS011;7205;50.864;12.766;2022-12-07T15:01:17;1.27;;;1.17;;
14241;SDS011;7205;50.864;12.766;2022-12-07T15:03:46;0.90;;;0.90;;
14241;SDS011;7205;50.864;12.766;2022-12-07T15:06:18;1.63;;;0.83;;
14241;SDS011;7205;50.864;12.766;2022-12-07T15:16:15;1.13;;;0.80;;
14241;SDS011;7205;50.864;12.766;2022-12-07T15:19:47;1.87;;;1.20;;
14241;SDS011;7205;50.864;12.766;2022-12-07T15:22:18;2.17;;;1.00;;
14241;SDS011;7205;50.864;12.766;2022-12-07T15:24:45;2.53;;;0.93;;
14241;SDS011;7205;50.864;12.766;2022-12-07T15:27:12;1.37;;;1.10;;
14241;SDS011;7205;50.864;12.766;2022-12-07T15:29:39;1.53;;;1.43;;
14241;SDS011;7205;50.864;12.766;2022-12-07T15:32:08;1.87;;;1.17;;
14241;SDS011;7205;50.864;12.766;2022-12-07T15:34:41;0.97;;;0.93;;
14241;SDS011;7205;50.864;12.766;2022-12-07T15:37:11;1.40;;;1.13;;
14241;SDS011;7205;50.864;12.766;2022-12-07T15:39:38;1.23;;;1.13;;
14241;SDS011;7205;50.864;12.766;2022-12-07T15:42:07;1.77;;;1.10;;
14241;SDS011;7205;50.864;12.766;2022-12-07T15:44:36;2.03;;;1.00;;
14241;SDS011;7205;50.864;12.766;2022-12-07T15:47:22;1.53;;;1.20;;
14241;SDS011;7205;50.864;12.766;2022-12-07T15:49:49;3.33;;;1.60;;
14241;SDS011;7205;50.864;12.766;2022-12-07T15:52:18;1.80;;;1.57;;
14241;SDS011;7205;50.864;12.766;2022-12-07T15:54:50;1.30;;;1.20;;
14241;SDS011;7205;50.864;12.766;2022-12-07T15:57:19;2.13;;;1.27;;
14241;SDS011;7205;50.864;12.766;2022-12-07T16:00:01;2.77;;;1.40;;
14241;SDS011;7205;50.864;12.766;2022-12-07T16:03:30;2.40;;;1.30;;
14241;SDS011;7205;50.864;12.766;2022-12-07T16:11:54;7.83;;;4.30;;
14241;SDS011;7205;50.864;12.766;2022-12-07T16:13:35;3.17;;;2.87;;